Lenora, Kansas
Current Conditions -  °F | °C
As of 6:53 AM on Monday 22 Dec 2014 (Local Time) from KHLC Reporting Station
Scattered Clouds Scattered Clouds  
Wind Chill: 33°   Ceiling: Unl
Heat Index: 41°   Visibility: 10mi
Dew Point: 31°   Wind: 16mph
Humidity: 67%   Direction: 320°NW
Pressure: 29.6"   Gusts: NA
Location:  39.61°N, 100°W
Report Text: KHLC 221253Z AUTO 32014KT 10SM FEW042 SCT055 SCT085 05/M01 A2960 RMK AO2 SLP029 T00501006
Loading
Personal Weather Stations






























Interactive Weather Map New forecast layout! Learn more

10-Day Weather Forecast

Advertisements
Track Severe Weather on mobile